createdAt,value
2023-02-23T00:02:08.794Z,1.45
2023-02-23T00:04:38.605Z,1.55
2023-02-23T00:07:10.100Z,1.58
2023-02-23T00:09:39.121Z,1.50
2023-02-23T00:12:15.555Z,1.40
2023-02-23T00:14:44.326Z,1.15
2023-02-23T00:17:15.145Z,1.60
2023-02-23T00:19:44.076Z,1.35
2023-02-23T00:22:12.194Z,1.13
2023-02-23T00:24:40.832Z,1.50
2023-02-23T00:27:11.014Z,1.65
2023-02-23T00:29:40.691Z,1.10
2023-02-23T00:32:09.426Z,1.35
2023-02-23T00:34:37.188Z,1.17
2023-02-23T00:37:04.353Z,1.55
2023-02-23T00:39:34.305Z,1.35
2023-02-23T00:42:03.491Z,1.35
2023-02-23T00:44:34.136Z,1.70
2023-02-23T00:47:02.075Z,1.58
2023-02-23T00:49:29.203Z,1.30
2023-02-23T00:51:56.513Z,1.40
2023-02-23T00:54:23.654Z,1.58
2023-02-23T00:56:51.700Z,1.52
2023-02-23T00:59:19.788Z,1.60
2023-02-23T01:01:47.120Z,1.20
2023-02-23T01:04:14.759Z,1.35
2023-02-23T01:06:42.819Z,1.63
2023-02-23T01:09:13.679Z,1.50
2023-02-23T01:11:41.738Z,1.50
2023-02-23T01:14:10.610Z,1.45
2023-02-23T01:16:41.027Z,1.50
2023-02-23T01:19:08.504Z,1.50
2023-02-23T01:21:42.612Z,1.27
2023-02-23T01:24:13.199Z,1.63
2023-02-23T01:26:43.820Z,1.70
2023-02-23T01:29:13.855Z,1.27
2023-02-23T01:31:47.961Z,1.50
2023-02-23T01:34:21.495Z,1.40
2023-02-23T01:36:48.752Z,1.50
2023-02-23T01:39:20.949Z,1.40
2023-02-23T01:41:51.112Z,1.52
2023-02-23T01:44:23.307Z,1.27
2023-02-23T01:46:50.782Z,1.50
2023-02-23T01:49:25.789Z,1.30
2023-02-23T01:52:03.755Z,1.58
2023-02-23T01:54:36.525Z,1.40
2023-02-23T01:57:05.154Z,1.40
2023-02-23T01:59:44.537Z,1.42
2023-02-23T02:02:13.474Z,1.67
2023-02-23T02:04:45.523Z,1.70
2023-02-23T02:07:25.137Z,1.38
2023-02-23T02:10:13.409Z,1.40
2023-02-23T02:12:45.149Z,1.42
2023-02-23T02:15:18.453Z,1.50
2023-02-23T02:17:57.145Z,1.40
2023-02-23T02:20:38.158Z,1.40
2023-02-23T02:23:34.605Z,1.48
2023-02-23T02:26:21.150Z,1.40
2023-02-23T02:29:31.425Z,1.20
2023-02-23T02:32:16.964Z,1.15
2023-02-23T02:34:55.630Z,1.27
2023-02-23T02:37:56.992Z,1.38
2023-02-23T02:40:26.869Z,1.65
2023-02-23T02:43:17.739Z,1.30
2023-02-23T02:45:53.526Z,1.40
2023-02-23T02:48:25.948Z,1.50
2023-02-23T02:50:57.536Z,1.45
2023-02-23T02:53:36.765Z,1.40
2023-02-23T02:56:09.660Z,1.10
2023-02-23T02:58:39.189Z,1.20
2023-02-23T03:01:32.193Z,1.50
2023-02-23T03:04:19.787Z,1.50
2023-02-23T03:07:31.032Z,1.40
2023-02-23T03:10:55.314Z,1.50
2023-02-23T03:13:48.673Z,1.52
2023-02-23T03:16:49.066Z,1.50
2023-02-23T03:19:40.284Z,1.40
2023-02-23T03:22:42.363Z,1.38
2023-02-23T03:25:35.606Z,1.60
2023-02-23T03:28:44.066Z,1.40
2023-02-23T03:34:29.893Z,1.50
2023-02-23T03:37:38.724Z,1.60
2023-02-23T03:40:35.121Z,1.20
2023-02-23T03:43:24.186Z,1.50
2023-02-23T03:46:18.236Z,1.40
2023-02-23T03:49:04.737Z,1.48
2023-02-23T03:51:53.386Z,1.40
2023-02-23T03:54:51.765Z,1.40
2023-02-23T03:57:40.516Z,1.50
2023-02-23T04:00:28.850Z,1.50
2023-02-23T04:03:16.198Z,1.40
2023-02-23T04:06:03.968Z,1.40
2023-02-23T04:08:55.000Z,1.33
2023-02-23T04:11:48.061Z,1.40
2023-02-23T04:14:27.250Z,1.58
2023-02-23T04:16:55.652Z,1.48
2023-02-23T04:19:24.408Z,1.70
2023-02-23T04:21:51.537Z,1.42
2023-02-23T04:24:18.614Z,1.70
2023-02-23T04:26:45.626Z,1.70
2023-02-23T04:29:12.845Z,1.50
2023-02-23T04:31:41.849Z,1.42
2023-02-23T04:34:08.911Z,1.20
2023-02-23T04:36:36.674Z,1.40
2023-02-23T04:39:03.819Z,1.65
2023-02-23T04:41:31.552Z,1.35
2023-02-23T04:43:58.746Z,1.30
2023-02-23T04:46:26.067Z,1.42
2023-02-23T04:48:53.123Z,1.15
2023-02-23T04:51:20.330Z,1.52
2023-02-23T04:53:47.434Z,1.70
2023-02-23T04:56:19.043Z,1.65
2023-02-23T04:58:46.146Z,1.70
2023-02-23T05:01:13.213Z,1.63
2023-02-23T05:03:40.181Z,1.50
2023-02-23T05:06:07.253Z,1.45
2023-02-23T05:08:34.326Z,1.45
2023-02-23T05:11:01.260Z,1.60
2023-02-23T05:13:28.511Z,1.60
2023-02-23T05:15:57.900Z,1.63
2023-02-23T05:18:26.559Z,1.45
2023-02-23T05:20:54.296Z,1.70
2023-02-23T05:23:22.034Z,1.63
2023-02-23T05:25:49.119Z,1.40
2023-02-23T05:28:16.155Z,1.52
2023-02-23T05:30:44.218Z,1.65
2023-02-23T05:33:11.173Z,1.42
2023-02-23T05:35:41.193Z,1.80
2023-02-23T05:38:08.657Z,1.48
2023-02-23T05:40:36.658Z,1.40
2023-02-23T05:43:03.667Z,1.52
2023-02-23T05:45:30.830Z,1.40
2023-02-23T05:48:00.902Z,1.73
2023-02-23T05:50:28.425Z,1.60
2023-02-23T05:52:55.511Z,1.50
2023-02-23T05:55:25.960Z,1.63
2023-02-23T05:57:54.742Z,1.70
2023-02-23T06:00:23.046Z,1.60
2023-02-23T06:02:54.079Z,1.60
2023-02-23T06:05:21.503Z,1.38
2023-02-23T06:07:48.496Z,1.63
2023-02-23T06:10:16.006Z,1.48
2023-02-23T06:12:43.068Z,1.70
2023-02-23T06:15:10.455Z,1.60
2023-02-23T06:17:37.518Z,1.50
2023-02-23T06:20:07.526Z,1.65
2023-02-23T06:22:34.577Z,1.50
2023-02-23T06:25:05.145Z,1.63
2023-02-23T06:27:32.241Z,1.50
2023-02-23T06:29:59.710Z,1.45
2023-02-23T06:32:27.976Z,1.83
2023-02-23T06:34:55.691Z,1.80
2023-02-23T06:37:24.514Z,1.60
2023-02-23T06:39:51.488Z,1.80
2023-02-23T06:42:21.951Z,1.70
2023-02-23T06:44:49.091Z,1.80
2023-02-23T06:47:17.564Z,1.50
2023-02-23T06:49:47.389Z,1.60
2023-02-23T06:52:14.892Z,1.70
2023-02-23T06:54:42.192Z,1.60
2023-02-23T06:57:09.858Z,1.92
2023-02-23T06:59:37.062Z,1.50
2023-02-23T07:02:06.990Z,1.83
2023-02-23T07:04:35.373Z,1.88
2023-02-23T07:07:04.231Z,1.95
2023-02-23T07:09:31.530Z,1.80
2023-02-23T07:11:58.778Z,1.92
2023-02-23T07:14:27.205Z,1.80
2023-02-23T07:16:57.315Z,1.60
2023-02-23T07:19:27.129Z,1.75
2023-02-23T07:21:54.337Z,1.80
2023-02-23T07:24:48.859Z,1.70
2023-02-23T07:27:15.923Z,1.70
2023-02-23T07:29:48.374Z,1.48
2023-02-23T07:32:18.361Z,1.88
2023-02-23T07:34:48.744Z,1.80
2023-02-23T07:37:17.367Z,1.88
2023-02-23T07:39:44.820Z,1.80
2023-02-23T07:42:15.228Z,1.90
2023-02-23T07:44:47.044Z,1.67
2023-02-23T07:47:14.654Z,2.00
2023-02-23T07:49:43.121Z,1.90
2023-02-23T07:52:14.260Z,1.90
2023-02-23T07:54:44.596Z,1.77
2023-02-23T07:57:12.131Z,2.00
2023-02-23T07:59:39.709Z,1.70
2023-02-23T08:02:13.362Z,2.00
2023-02-23T08:04:43.703Z,2.00
2023-02-23T08:07:11.561Z,1.85
2023-02-23T08:09:44.403Z,1.63
2023-02-23T08:12:18.014Z,1.92
2023-02-23T08:14:47.288Z,1.75
2023-02-23T08:19:57.723Z,1.85
2023-02-23T08:22:37.867Z,1.80
2023-02-23T08:25:45.807Z,1.70
2023-02-23T08:28:22.460Z,1.55
2023-02-23T08:30:50.697Z,1.90
2023-02-23T08:33:18.042Z,1.73
2023-02-23T08:35:45.693Z,1.88
2023-02-23T08:38:12.851Z,1.92
2023-02-23T08:40:40.353Z,1.63
2023-02-23T08:43:08.276Z,1.80
2023-02-23T08:45:35.733Z,1.75
2023-02-23T08:48:03.693Z,1.90
2023-02-23T08:50:30.954Z,1.90
2023-02-23T08:53:05.376Z,2.00
2023-02-23T08:55:37.009Z,1.98
2023-02-23T08:58:04.267Z,1.45
2023-02-23T09:00:33.908Z,1.70
2023-02-23T09:03:00.874Z,1.60
2023-02-23T09:05:30.321Z,1.40
2023-02-23T09:07:58.764Z,1.52
2023-02-23T09:10:53.381Z,1.50
2023-02-23T09:13:20.998Z,1.60
2023-02-23T09:16:17.149Z,1.70
2023-02-23T09:21:35.613Z,1.50
2023-02-23T09:24:33.330Z,1.63
2023-02-23T09:27:00.702Z,1.50
2023-02-23T09:29:27.663Z,1.33
2023-02-23T09:31:57.723Z,1.42
2023-02-23T09:34:24.971Z,1.40
2023-02-23T09:36:52.348Z,1.35
2023-02-23T09:39:32.238Z,1.25
2023-02-23T09:42:16.432Z,1.45
2023-02-23T09:45:26.781Z,1.40
2023-02-23T09:48:10.894Z,1.60
2023-02-23T09:50:45.613Z,1.17
2023-02-23T09:53:38.998Z,1.60
2023-02-23T09:56:13.435Z,1.48
2023-02-23T09:58:45.644Z,1.48
2023-02-23T10:01:41.392Z,1.30
2023-02-23T10:04:40.922Z,1.27
2023-02-23T10:07:20.767Z,1.40
2023-02-23T10:09:52.181Z,1.25
2023-02-23T10:12:49.168Z,1.50
2023-02-23T10:15:37.533Z,1.45
2023-02-23T10:18:30.700Z,1.33
2023-02-23T10:21:36.249Z,1.70
2023-02-23T10:24:27.929Z,1.70
2023-02-23T10:27:16.336Z,1.48
2023-02-23T10:29:56.569Z,1.50
2023-02-23T10:32:46.622Z,1.60
2023-02-23T10:35:21.576Z,1.52
2023-02-23T10:37:55.696Z,1.70
2023-02-23T10:40:33.333Z,1.50
2023-02-23T10:43:38.399Z,1.60
2023-02-23T10:46:39.103Z,1.50
2023-02-23T10:49:17.958Z,1.60
2023-02-23T10:51:45.672Z,1.50
2023-02-23T10:54:35.840Z,1.60
2023-02-23T10:57:05.016Z,1.60
2023-02-23T10:59:37.164Z,1.65
2023-02-23T11:02:27.577Z,1.70
2023-02-23T11:05:01.304Z,1.70
2023-02-23T11:07:42.326Z,1.60
2023-02-23T11:13:36.210Z,1.60
2023-02-23T11:16:25.899Z,1.67
2023-02-23T11:19:05.491Z,1.60
2023-02-23T11:21:40.280Z,1.70
2023-02-23T11:24:16.818Z,1.55
2023-02-23T11:26:55.401Z,1.50
2023-02-23T11:29:36.945Z,1.50
2023-02-23T11:32:10.406Z,1.55
2023-02-23T11:34:41.456Z,1.90
2023-02-23T11:37:20.286Z,1.50
2023-02-23T11:40:02.301Z,1.60
2023-02-23T11:42:38.629Z,1.70
2023-02-23T11:45:18.983Z,1.60
2023-02-23T11:47:59.158Z,1.60
2023-02-23T11:50:38.750Z,1.45
2023-02-23T11:53:07.902Z,1.63
2023-02-23T11:55:44.310Z,1.70
2023-02-23T11:58:23.104Z,1.58
2023-02-23T12:00:59.849Z,1.70
2023-02-23T12:03:29.695Z,1.65
2023-02-23T12:05:59.282Z,1.58
2023-02-23T12:08:48.274Z,1.60
2023-02-23T12:11:26.797Z,1.70
2023-02-23T12:14:05.602Z,1.60
2023-02-23T12:16:40.267Z,1.50
2023-02-23T12:19:08.574Z,1.77
2023-02-23T12:21:41.520Z,1.60
2023-02-23T12:24:08.714Z,1.67
2023-02-23T12:26:48.582Z,1.50
2023-02-23T12:29:30.213Z,1.63
2023-02-23T12:32:04.097Z,1.60
2023-02-23T12:34:45.026Z,1.60
2023-02-23T12:37:29.273Z,1.40
2023-02-23T12:40:04.738Z,1.70
2023-02-23T12:43:09.246Z,1.60
2023-02-23T12:49:01.166Z,1.63
2023-02-23T12:52:06.673Z,1.60
2023-02-23T12:54:39.104Z,1.60
2023-02-23T12:57:13.499Z,1.60
2023-02-23T12:59:57.430Z,1.80
2023-02-23T13:02:42.554Z,1.70
2023-02-23T13:05:16.282Z,1.67
2023-02-23T13:07:47.881Z,1.70
2023-02-23T13:10:53.798Z,1.60
2023-02-23T13:16:45.398Z,1.55
2023-02-23T13:19:38.462Z,1.65
2023-02-23T13:22:08.394Z,1.60
2023-02-23T13:24:44.425Z,1.60
2023-02-23T13:27:36.536Z,1.40
2023-02-23T13:30:25.513Z,1.60
2023-02-23T13:32:52.960Z,1.50
2023-02-23T13:35:22.878Z,1.40
2023-02-23T13:38:04.871Z,1.40
2023-02-23T13:40:51.741Z,1.40
2023-02-23T13:44:02.266Z,1.33
2023-02-23T13:46:44.360Z,1.40
2023-02-23T13:49:34.039Z,1.48
2023-02-23T13:52:21.360Z,1.38
2023-02-23T13:54:56.554Z,1.40
2023-02-23T13:57:28.006Z,1.48
2023-02-23T13:59:55.295Z,1.20
2023-02-23T14:02:33.387Z,1.42
2023-02-23T14:05:24.926Z,1.10
2023-02-23T14:07:55.203Z,1.00
2023-02-23T14:10:29.942Z,1.10
2023-02-23T14:13:18.240Z,0.90
2023-02-23T14:15:53.832Z,0.80
2023-02-23T14:18:21.254Z,0.90
2023-02-23T14:20:57.526Z,0.80
2023-02-23T14:23:25.144Z,0.90
2023-02-23T14:26:13.412Z,0.70
2023-02-23T14:28:46.895Z,0.90
2023-02-23T14:31:14.125Z,0.80
2023-02-23T14:33:45.592Z,1.00
2023-02-23T14:36:22.301Z,0.88
2023-02-23T14:39:01.404Z,1.00
2023-02-23T14:41:58.687Z,0.88
2023-02-23T14:44:54.456Z,0.93
2023-02-23T14:47:26.787Z,0.80
2023-02-23T14:50:04.845Z,1.08
2023-02-23T14:52:38.414Z,1.10
2023-02-23T14:55:11.352Z,1.00
2023-02-23T14:57:42.076Z,0.88
2023-02-23T15:00:23.213Z,1.10
2023-02-23T15:02:55.436Z,1.10
2023-02-23T15:05:26.535Z,1.10
2023-02-23T15:07:58.945Z,0.90
2023-02-23T15:10:32.870Z,0.90
2023-02-23T15:13:01.677Z,1.27
2023-02-23T15:15:31.864Z,1.17
2023-02-23T15:18:00.356Z,1.08
2023-02-23T15:23:03.869Z,1.05
2023-02-23T15:25:39.925Z,1.40
2023-02-23T15:28:21.992Z,1.30
2023-02-23T15:30:51.748Z,1.25
2023-02-23T15:33:23.803Z,1.30
2023-02-23T15:36:01.016Z,1.20
2023-02-23T15:38:43.605Z,1.10
2023-02-23T15:41:27.321Z,1.33
2023-02-23T15:43:56.366Z,1.25
2023-02-23T15:46:29.185Z,1.02
2023-02-23T15:49:03.222Z,1.40
2023-02-23T15:51:36.653Z,1.10
2023-02-23T15:54:13.974Z,1.05
2023-02-23T15:56:41.268Z,1.30
2023-02-23T15:59:14.629Z,1.25
2023-02-23T16:01:45.012Z,1.40
2023-02-23T16:04:15.669Z,1.40
2023-02-23T16:07:04.556Z,1.40
2023-02-23T16:09:37.590Z,1.10
2023-02-23T16:12:05.726Z,1.50
2023-02-23T16:14:45.645Z,1.27
2023-02-23T16:17:27.976Z,1.00
2023-02-23T16:19:58.602Z,1.40
2023-02-23T16:22:27.782Z,1.35
2023-02-23T16:25:03.870Z,1.10
2023-02-23T16:27:33.838Z,1.50
2023-02-23T16:30:26.033Z,1.10
2023-02-23T16:33:44.628Z,1.48
2023-02-23T16:36:13.266Z,1.40
2023-02-23T16:38:58.118Z,1.50
2023-02-23T16:41:27.856Z,1.42
2023-02-23T16:43:57.549Z,1.40
2023-02-23T16:46:31.842Z,1.52
2023-02-23T16:49:10.473Z,1.60
2023-02-23T16:51:38.568Z,1.40
2023-02-23T16:54:08.611Z,1.50
2023-02-23T16:56:39.178Z,1.38
2023-02-23T16:59:09.845Z,1.50
2023-02-23T17:01:37.333Z,1.50
2023-02-23T17:07:04.919Z,1.60
2023-02-23T17:09:32.684Z,1.50
2023-02-23T17:12:00.142Z,1.50
2023-02-23T17:14:33.352Z,1.50
2023-02-23T17:17:01.346Z,1.60
2023-02-23T17:19:28.563Z,1.40
2023-02-23T17:22:01.168Z,1.42
2023-02-23T17:24:28.415Z,1.55
2023-02-23T17:26:55.874Z,1.60
2023-02-23T17:29:23.231Z,1.52
2023-02-23T17:31:52.631Z,1.50
2023-02-23T17:34:23.522Z,1.35
2023-02-23T17:36:51.659Z,1.60
2023-02-23T17:39:19.625Z,1.50
2023-02-23T17:41:50.324Z,1.55
2023-02-23T17:44:17.760Z,1.40
2023-02-23T17:46:44.910Z,1.60
2023-02-23T17:49:15.254Z,1.52
2023-02-23T17:51:43.006Z,1.60
2023-02-23T17:54:13.246Z,1.60
2023-02-23T17:59:27.065Z,1.40
2023-02-23T18:01:54.208Z,1.40
2023-02-23T18:04:21.629Z,1.60
2023-02-23T18:06:56.293Z,1.67
2023-02-23T18:09:27.112Z,1.58
2023-02-23T18:20:40.261Z,1.50
2023-02-23T18:23:09.878Z,1.50
2023-02-23T18:26:24.844Z,1.48
2023-02-23T18:29:19.822Z,1.52
2023-02-23T18:31:54.874Z,1.40
2023-02-23T18:34:26.093Z,1.50
2023-02-23T18:37:03.820Z,1.58
2023-02-23T18:39:32.008Z,1.60
2023-02-23T18:42:00.918Z,1.50
2023-02-23T18:44:37.550Z,1.35
2023-02-23T18:47:04.731Z,1.38
2023-02-23T18:49:35.891Z,1.50
2023-02-23T18:52:05.889Z,1.50
2023-02-23T18:54:33.504Z,1.40
2023-02-23T18:57:03.382Z,1.50
2023-02-23T18:59:33.673Z,1.50
2023-02-23T19:02:05.847Z,1.60
2023-02-23T19:07:20.506Z,1.48
2023-02-23T19:09:53.747Z,1.50
2023-02-23T19:12:41.842Z,1.40
2023-02-23T19:15:15.485Z,1.55
2023-02-23T19:17:42.770Z,1.52
2023-02-23T19:20:17.664Z,1.50
2023-02-23T19:22:46.013Z,1.50
2023-02-23T19:25:21.631Z,1.60
2023-02-23T19:27:49.310Z,1.60
2023-02-23T19:30:19.700Z,1.50
2023-02-23T19:32:49.466Z,1.52
2023-02-23T19:35:17.129Z,1.60
2023-02-23T19:37:47.829Z,1.60
2023-02-23T19:40:19.886Z,1.70
2023-02-23T19:42:48.201Z,1.60
2023-02-23T19:45:16.233Z,1.58
2023-02-23T19:47:44.196Z,1.60
2023-02-23T19:50:20.251Z,1.70
2023-02-23T19:52:49.302Z,1.50
2023-02-23T19:55:16.463Z,1.70
2023-02-23T19:57:47.072Z,1.50
2023-02-23T20:00:14.828Z,1.58
2023-02-23T20:02:46.756Z,1.50
2023-02-23T20:05:16.777Z,1.60
2023-02-23T20:07:44.824Z,1.35
2023-02-23T20:10:16.686Z,1.50
2023-02-23T20:12:44.302Z,1.50
2023-02-23T20:15:17.160Z,1.50
2023-02-23T20:17:54.001Z,1.60
2023-02-23T20:20:26.684Z,1.33
2023-02-23T20:22:53.868Z,1.42
2023-02-23T20:25:22.974Z,1.60
2023-02-23T20:27:51.449Z,1.40
2023-02-23T20:30:20.156Z,1.58
2023-02-23T20:32:48.234Z,1.40
2023-02-23T20:35:22.172Z,1.50
2023-02-23T20:37:52.349Z,1.50
2023-02-23T20:40:20.410Z,1.60
2023-02-23T20:42:49.167Z,1.70
2023-02-23T20:45:22.530Z,1.40
2023-02-23T20:47:53.676Z,1.50
2023-02-23T20:50:35.848Z,1.60
2023-02-23T20:53:08.814Z,1.63
2023-02-23T20:55:36.092Z,1.60
2023-02-23T20:58:05.856Z,1.60
2023-02-23T21:00:33.100Z,1.70
2023-02-23T21:03:05.460Z,1.70
2023-02-23T21:05:57.893Z,1.50
2023-02-23T21:08:25.085Z,1.40
2023-02-23T21:10:53.796Z,1.50
2023-02-23T21:13:23.325Z,1.63
2023-02-23T21:16:01.652Z,1.50
2023-02-23T21:18:30.834Z,1.40
2023-02-23T21:21:06.948Z,1.60
2023-02-23T21:23:34.292Z,1.50
2023-02-23T21:26:09.927Z,1.50
2023-02-23T21:28:39.441Z,1.25
2023-02-23T21:31:06.933Z,1.58
2023-02-23T21:33:39.974Z,1.40
2023-02-23T21:36:11.396Z,1.60
2023-02-23T21:38:43.731Z,1.50
2023-02-23T21:41:12.685Z,1.50
2023-02-23T21:43:41.627Z,1.27
2023-02-23T21:46:13.714Z,1.60
2023-02-23T21:48:41.658Z,1.50
2023-02-23T21:51:12.113Z,1.48
2023-02-23T21:53:40.267Z,1.55
2023-02-23T21:56:16.788Z,1.50
2023-02-23T21:58:52.606Z,1.45
2023-02-23T22:01:22.784Z,1.60
2023-02-23T22:03:50.863Z,1.27
2023-02-23T22:06:20.752Z,1.50
2023-02-23T22:08:51.201Z,1.45
2023-02-23T22:11:21.255Z,1.50
2023-02-23T22:13:49.904Z,1.60
2023-02-23T22:16:55.366Z,1.50
2023-02-23T22:19:37.582Z,1.55
2023-02-23T22:22:27.775Z,1.50
2023-02-23T22:25:12.835Z,1.50
2023-02-23T22:27:54.875Z,1.55
2023-02-23T22:30:23.203Z,1.48
2023-02-23T22:32:52.736Z,1.50
2023-02-23T22:35:53.661Z,1.30
2023-02-23T22:38:26.509Z,1.60
2023-02-23T22:41:11.075Z,1.60
2023-02-23T22:43:46.591Z,1.50
2023-02-23T22:46:28.376Z,1.50
2023-02-23T22:49:01.903Z,1.60
2023-02-23T22:51:35.834Z,1.50
2023-02-23T22:54:09.137Z,1.50
2023-02-23T22:56:50.245Z,1.45
2023-02-23T22:59:25.440Z,1.50
2023-02-23T23:01:59.014Z,1.40
2023-02-23T23:04:34.820Z,1.50
2023-02-23T23:07:03.962Z,1.58
2023-02-23T23:09:58.215Z,1.48
2023-02-23T23:12:43.698Z,1.50
2023-02-23T23:15:57.709Z,1.38
2023-02-23T23:18:36.768Z,1.33
2023-02-23T23:21:14.512Z,1.50
2023-02-23T23:24:02.881Z,1.40
2023-02-23T23:26:53.932Z,1.40
2023-02-23T23:29:33.025Z,1.40
2023-02-23T23:32:08.799Z,1.50
2023-02-23T23:35:12.675Z,1.52
2023-02-23T23:37:41.749Z,1.65
2023-02-23T23:40:16.288Z,1.40
2023-02-23T23:42:51.915Z,1.58
2023-02-23T23:45:25.767Z,1.60
2023-02-23T23:48:01.044Z,1.50
2023-02-23T23:50:31.621Z,1.40
2023-02-23T23:53:02.026Z,1.50
2023-02-23T23:55:38.769Z,1.33
2023-02-23T23:58:08.181Z,1.40
